sensor_id;sensor_type;location;lat;lon;timestamp;pressure;altitude;pressure_sealevel;temperature;humidity
6853;BME280;3465;42.144;24.722;2022-11-15T00:00:23;100213.97;;;6.69;100.00
6853;BME280;3465;42.144;24.722;2022-11-15T00:02:49;100217.97;;;6.62;100.00
6853;BME280;3465;42.144;24.722;2022-11-15T00:05:14;100175.31;;;6.39;100.00
6853;BME280;3465;42.144;24.722;2022-11-15T00:07:40;100216.34;;;6.64;100.00
6853;BME280;3465;42.144;24.722;2022-11-15T00:10:05;100218.91;;;6.64;100.00
6853;BME280;3465;42.144;24.722;2022-11-15T00:12:31;100198.03;;;6.54;100.00
6853;BME280;3465;42.144;24.722;2022-11-15T00:14:56;100209.38;;;6.60;100.00
6853;BME280;3465;42.144;24.722;2022-11-15T00:17:22;100216.91;;;6.57;100.00
6853;BME280;3465;42.144;24.722;2022-11-15T00:19:47;100221.22;;;6.58;100.00
6853;BME280;3465;42.144;24.722;2022-11-15T00:22:12;100197.72;;;6.46;100.00
6853;BME280;3465;42.144;24.722;2022-11-15T00:24:38;100223.81;;;6.60;100.00
6853;BME280;3465;42.144;24.722;2022-11-15T00:27:03;100218.56;;;6.57;100.00
6853;BME280;3465;42.144;24.722;2022-11-15T00:29:28;100220.22;;;6.55;100.00
6853;BME280;3465;42.144;24.722;2022-11-15T00:31:54;100173.38;;;6.34;100.00
6853;BME280;3465;42.144;24.722;2022-11-15T00:34:19;100211.66;;;6.54;100.00
6853;BME280;3465;42.144;24.722;2022-11-15T00:36:44;100196.06;;;6.47;100.00
6853;BME280;3465;42.144;24.722;2022-11-15T00:39:10;100213.41;;;6.55;100.00
6853;BME280;3465;42.144;24.722;2022-11-15T00:41:35;100217.03;;;6.60;100.00
6853;BME280;3465;42.144;24.722;2022-11-15T00:44:01;100202.16;;;6.50;100.00
6853;BME280;3465;42.144;24.722;2022-11-15T00:46:26;100164.66;;;6.29;100.00
6853;BME280;3465;42.144;24.722;2022-11-15T00:48:51;100207.56;;;6.58;100.00
6853;BME280;3465;42.144;24.722;2022-11-15T00:51:17;100199.66;;;6.52;100.00
6853;BME280;3465;42.144;24.722;2022-11-15T00:53:42;100201.22;;;6.48;100.00
6853;BME280;3465;42.144;24.722;2022-11-15T00:56:07;100185.50;;;6.39;100.00
6853;BME280;3465;42.144;24.722;2022-11-15T00:58:33;100200.16;;;6.43;100.00
6853;BME280;3465;42.144;24.722;2022-11-15T01:01:09;100205.56;;;6.51;100.00
6853;BME280;3465;42.144;24.722;2022-11-15T01:03:36;100198.78;;;6.51;100.00
6853;BME280;3465;42.144;24.722;2022-11-15T01:06:02;100197.19;;;6.53;100.00
6853;BME280;3465;42.144;24.722;2022-11-15T01:08:28;100189.53;;;6.53;100.00
6853;BME280;3465;42.144;24.722;2022-11-15T01:10:53;100198.25;;;6.58;100.00
6853;BME280;3465;42.144;24.722;2022-11-15T01:13:18;100193.25;;;6.61;100.00
6853;BME280;3465;42.144;24.722;2022-11-15T01:15:44;100179.00;;;6.66;100.00
6853;BME280;3465;42.144;24.722;2022-11-15T01:18:09;100198.06;;;6.74;100.00
6853;BME280;3465;42.144;24.722;2022-11-15T01:20:41;100192.88;;;6.73;100.00
6853;BME280;3465;42.144;24.722;2022-11-15T01:23:07;100062.13;;;5.96;100.00
6853;BME280;3465;42.144;24.722;2022-11-15T01:25:32;100164.19;;;6.58;100.00
6853;BME280;3465;42.144;24.722;2022-11-15T01:27:58;100182.66;;;6.73;100.00
6853;BME280;3465;42.144;24.722;2022-11-15T01:30:23;100174.03;;;6.69;100.00
6853;BME280;3465;42.144;24.722;2022-11-15T01:32:48;100181.81;;;6.72;100.00
6853;BME280;3465;42.144;24.722;2022-11-15T01:35:14;100185.16;;;6.71;100.00
6853;BME280;3465;42.144;24.722;2022-11-15T01:37:39;100181.81;;;6.72;100.00
6853;BME280;3465;42.144;24.722;2022-11-15T01:40:05;100167.88;;;6.64;100.00
6853;BME280;3465;42.144;24.722;2022-11-15T01:42:30;100174.94;;;6.71;100.00
6853;BME280;3465;42.144;24.722;2022-11-15T01:44:56;100176.69;;;6.72;100.00
6853;BME280;3465;42.144;24.722;2022-11-15T01:47:25;100179.53;;;6.80;100.00
6853;BME280;3465;42.144;24.722;2022-11-15T01:49:59;100160.25;;;6.66;100.00
6853;BME280;3465;42.144;24.722;2022-11-15T01:52:27;100167.22;;;6.70;100.00
6853;BME280;3465;42.144;24.722;2022-11-15T01:57:40;100152.56;;;6.64;100.00
6853;BME280;3465;42.144;24.722;2022-11-15T02:00:07;100172.53;;;6.74;100.00
6853;BME280;3465;42.144;24.722;2022-11-15T02:02:33;100173.78;;;6.84;100.00
6853;BME280;3465;42.144;24.722;2022-11-15T02:04:59;100151.97;;;6.71;100.00
6853;BME280;3465;42.144;24.722;2022-11-15T02:07:25;100178.53;;;6.76;100.00
6853;BME280;3465;42.144;24.722;2022-11-15T02:09:50;100167.91;;;6.66;100.00
6853;BME280;3465;42.144;24.722;2022-11-15T02:12:19;100156.66;;;6.61;100.00
6853;BME280;3465;42.144;24.722;2022-11-15T02:14:50;100161.75;;;6.61;100.00
6853;BME280;3465;42.144;24.722;2022-11-15T02:20:39;100171.19;;;6.63;100.00
6853;BME280;3465;42.144;24.722;2022-11-15T02:29:07;100168.91;;;6.69;100.00
6853;BME280;3465;42.144;24.722;2022-11-15T02:39:53;100170.78;;;6.73;100.00
6853;BME280;3465;42.144;24.722;2022-11-15T02:42:23;100163.22;;;6.76;100.00
6853;BME280;3465;42.144;24.722;2022-11-15T02:45:11;100159.56;;;6.70;100.00
6853;BME280;3465;42.144;24.722;2022-11-15T02:47:43;100137.78;;;6.57;100.00
6853;BME280;3465;42.144;24.722;2022-11-15T02:50:16;100155.56;;;6.76;100.00
6853;BME280;3465;42.144;24.722;2022-11-15T02:52:45;100142.50;;;6.69;100.00
6853;BME280;3465;42.144;24.722;2022-11-15T03:01:00;100129.91;;;6.51;100.00
6853;BME280;3465;42.144;24.722;2022-11-15T03:12:14;100139.59;;;6.60;100.00
6853;BME280;3465;42.144;24.722;2022-11-15T03:15:05;100152.78;;;6.70;100.00
6853;BME280;3465;42.144;24.722;2022-11-15T03:17:41;100155.78;;;6.60;100.00
6853;BME280;3465;42.144;24.722;2022-11-15T03:20:09;100159.25;;;6.62;100.00
6853;BME280;3465;42.144;24.722;2022-11-15T03:22:40;100129.91;;;6.51;100.00
6853;BME280;3465;42.144;24.722;2022-11-15T03:25:09;100136.00;;;6.55;100.00
6853;BME280;3465;42.144;24.722;2022-11-15T03:27:39;100150.13;;;6.67;100.00
6853;BME280;3465;42.144;24.722;2022-11-15T03:30:08;100149.69;;;6.77;100.00
6853;BME280;3465;42.144;24.722;2022-11-15T03:32:42;100148.78;;;6.77;100.00
6853;BME280;3465;42.144;24.722;2022-11-15T03:35:20;100123.53;;;6.62;100.00
6853;BME280;3465;42.144;24.722;2022-11-15T03:40:36;100142.31;;;6.85;100.00
6853;BME280;3465;42.144;24.722;2022-11-15T03:43:11;100135.53;;;6.85;100.00
6853;BME280;3465;42.144;24.722;2022-11-15T03:48:50;100129.50;;;6.83;100.00
6853;BME280;3465;42.144;24.722;2022-11-15T03:51:17;100115.66;;;6.78;100.00
6853;BME280;3465;42.144;24.722;2022-11-15T03:53:43;100117.53;;;6.82;100.00
6853;BME280;3465;42.144;24.722;2022-11-15T03:56:08;100118.44;;;6.84;100.00
6853;BME280;3465;42.144;24.722;2022-11-15T03:58:34;100124.25;;;6.80;100.00
6853;BME280;3465;42.144;24.722;2022-11-15T04:00:59;100111.84;;;6.67;100.00
6853;BME280;3465;42.144;24.722;2022-11-15T04:03:25;100124.94;;;6.76;100.00
6853;BME280;3465;42.144;24.722;2022-11-15T04:05:50;100119.78;;;6.75;100.00
6853;BME280;3465;42.144;24.722;2022-11-15T04:08:16;100122.16;;;6.70;100.00
6853;BME280;3465;42.144;24.722;2022-11-15T04:10:41;100120.44;;;6.69;100.00
6853;BME280;3465;42.144;24.722;2022-11-15T04:13:06;100108.47;;;6.68;100.00
6853;BME280;3465;42.144;24.722;2022-11-15T04:15:32;100112.56;;;6.65;100.00
6853;BME280;3465;42.144;24.722;2022-11-15T04:17:58;100087.47;;;6.53;100.00
6853;BME280;3465;42.144;24.722;2022-11-15T04:20:24;100100.75;;;6.67;100.00
6853;BME280;3465;42.144;24.722;2022-11-15T04:23:12;100100.75;;;6.67;100.00
6853;BME280;3465;42.144;24.722;2022-11-15T04:25:59;100084.19;;;6.57;100.00
6853;BME280;3465;42.144;24.722;2022-11-15T04:28:25;100102.50;;;6.68;100.00
6853;BME280;3465;42.144;24.722;2022-11-15T04:30:50;100107.56;;;6.66;100.00
6853;BME280;3465;42.144;24.722;2022-11-15T04:33:16;100096.22;;;6.60;100.00
6853;BME280;3465;42.144;24.722;2022-11-15T04:35:42;100101.13;;;6.55;100.00
6853;BME280;3465;42.144;24.722;2022-11-15T04:38:09;100096.97;;;6.57;100.00
6853;BME280;3465;42.144;24.722;2022-11-15T04:40:36;100101.06;;;6.54;100.00
6853;BME280;3465;42.144;24.722;2022-11-15T04:43:03;100076.75;;;6.41;100.00
6853;BME280;3465;42.144;24.722;2022-11-15T04:45:28;100102.06;;;6.57;100.00
6853;BME280;3465;42.144;24.722;2022-11-15T04:47:54;100099.63;;;6.60;100.00
6853;BME280;3465;42.144;24.722;2022-11-15T04:50:19;100097.78;;;6.56;100.00
6853;BME280;3465;42.144;24.722;2022-11-15T04:52:53;100091.56;;;6.50;100.00
6853;BME280;3465;42.144;24.722;2022-11-15T04:55:19;100100.78;;;6.46;100.00
6853;BME280;3465;42.144;24.722;2022-11-15T04:57:45;100078.00;;;6.30;100.00
6853;BME280;3465;42.144;24.722;2022-11-15T05:00:15;100090.88;;;6.33;100.00
6853;BME280;3465;42.144;24.722;2022-11-15T05:02:41;100092.66;;;6.34;100.00
6853;BME280;3465;42.144;24.722;2022-11-15T05:05:25;100094.31;;;6.34;100.00
6853;BME280;3465;42.144;24.722;2022-11-15T05:07:50;100077.91;;;6.27;100.00
6853;BME280;3465;42.144;24.722;2022-11-15T05:10:16;100075.28;;;6.26;100.00
6853;BME280;3465;42.144;24.722;2022-11-15T05:12:41;100087.44;;;6.33;100.00
6853;BME280;3465;42.144;24.722;2022-11-15T05:15:07;100092.56;;;6.33;100.00
6853;BME280;3465;42.144;24.722;2022-11-15T05:17:32;100089.16;;;6.32;100.00
6853;BME280;3465;42.144;24.722;2022-11-15T05:19:58;100070.72;;;6.19;100.00
6853;BME280;3465;42.144;24.722;2022-11-15T05:22:23;100088.34;;;6.33;100.00
6853;BME280;3465;42.144;24.722;2022-11-15T05:24:49;100080.38;;;6.26;100.00
6853;BME280;3465;42.144;24.722;2022-11-15T05:27:14;100076.22;;;6.28;100.00
6853;BME280;3465;42.144;24.722;2022-11-15T05:29:40;100086.59;;;6.32;100.00
6853;BME280;3465;42.144;24.722;2022-11-15T05:32:06;100085.84;;;6.35;100.00
6853;BME280;3465;42.144;24.722;2022-11-15T05:34:31;100090.94;;;6.35;100.00
6853;BME280;3465;42.144;24.722;2022-11-15T05:36:57;100073.41;;;6.22;100.00
6853;BME280;3465;42.144;24.722;2022-11-15T05:39:22;100091.13;;;6.39;100.00
6853;BME280;3465;42.144;24.722;2022-11-15T05:41:52;100092.19;;;6.44;100.00
6853;BME280;3465;42.144;24.722;2022-11-15T05:44:23;100097.78;;;6.56;100.00
6853;BME280;3465;42.144;24.722;2022-11-15T05:46:53;100095.56;;;6.65;100.00
6853;BME280;3465;42.144;24.722;2022-11-15T05:49:24;100081.59;;;6.56;100.00
6853;BME280;3465;42.144;24.722;2022-11-15T05:51:52;100103.41;;;6.70;100.00
6853;BME280;3465;42.144;24.722;2022-11-15T05:54:20;100095.81;;;6.71;100.00
6853;BME280;3465;42.144;24.722;2022-11-15T05:56:46;100116.66;;;6.82;100.00
6853;BME280;3465;42.144;24.722;2022-11-15T05:59:12;100113.34;;;6.84;100.00
6853;BME280;3465;42.144;24.722;2022-11-15T06:01:38;100113.72;;;6.93;100.00
6853;BME280;3465;42.144;24.722;2022-11-15T06:04:04;100119.09;;;7.01;100.00
6853;BME280;3465;42.144;24.722;2022-11-15T06:06:30;100114.00;;;7.01;100.00
6853;BME280;3465;42.144;24.722;2022-11-15T06:08:55;100116.44;;;6.98;100.00
6853;BME280;3465;42.144;24.722;2022-11-15T06:11:21;100121.94;;;7.08;100.00
6853;BME280;3465;42.144;24.722;2022-11-15T06:13:46;100039.38;;;6.64;100.00
6853;BME280;3465;42.144;24.722;2022-11-15T06:16:11;100120.31;;;7.32;100.00
6853;BME280;3465;42.144;24.722;2022-11-15T06:18:37;100120.22;;;7.53;100.00
6853;BME280;3465;42.144;24.722;2022-11-15T06:21:03;100133.22;;;7.83;100.00
6853;BME280;3465;42.144;24.722;2022-11-15T06:23:32;100099.94;;;7.81;100.00
6853;BME280;3465;42.144;24.722;2022-11-15T06:25:58;100140.31;;;8.15;100.00
6853;BME280;3465;42.144;24.722;2022-11-15T06:28:24;100122.59;;;8.21;100.00
6853;BME280;3465;42.144;24.722;2022-11-15T06:30:50;100131.66;;;8.35;100.00
6853;BME280;3465;42.144;24.722;2022-11-15T06:33:15;100137.91;;;8.43;100.00
6853;BME280;3465;42.144;24.722;2022-11-15T06:35:40;100135.53;;;8.49;100.00
6853;BME280;3465;42.144;24.722;2022-11-15T06:38:08;100134.72;;;8.50;100.00
6853;BME280;3465;42.144;24.722;2022-11-15T06:40:35;100150.44;;;8.60;100.00
6853;BME280;3465;42.144;24.722;2022-11-15T06:43:01;100143.03;;;8.69;100.00
6853;BME280;3465;42.144;24.722;2022-11-15T06:45:27;100130.38;;;8.74;100.00
6853;BME280;3465;42.144;24.722;2022-11-15T06:47:52;100148.88;;;8.92;100.00
6853;BME280;3465;42.144;24.722;2022-11-15T06:50:18;100157.13;;;9.10;100.00
6853;BME280;3465;42.144;24.722;2022-11-15T06:52:43;100152.25;;;9.18;100.00
6853;BME280;3465;42.144;24.722;2022-11-15T06:55:09;100157.97;;;9.37;100.00
6853;BME280;3465;42.144;24.722;2022-11-15T06:57:35;100162.78;;;9.56;100.00
6853;BME280;3465;42.144;24.722;2022-11-15T07:00:01;100167.56;;;9.74;100.00
6853;BME280;3465;42.144;24.722;2022-11-15T07:02:27;100125.50;;;9.67;100.00
6853;BME280;3465;42.144;24.722;2022-11-15T07:04:52;100161.44;;;9.98;100.00
6853;BME280;3465;42.144;24.722;2022-11-15T07:07:18;100146.06;;;10.00;100.00
6853;BME280;3465;42.144;24.722;2022-11-15T07:09:43;100143.97;;;10.17;100.00
6853;BME280;3465;42.144;24.722;2022-11-15T07:12:09;100162.03;;;10.54;100.00
6853;BME280;3465;42.144;24.722;2022-11-15T07:14:34;100163.56;;;11.15;100.00
6853;BME280;3465;42.144;24.722;2022-11-15T07:16:59;100133.66;;;12.02;100.00
6853;BME280;3465;42.144;24.722;2022-11-15T07:19:25;100167.06;;;12.97;100.00
6853;BME280;3465;42.144;24.722;2022-11-15T07:21:50;100160.44;;;13.74;100.00
6853;BME280;3465;42.144;24.722;2022-11-15T07:24:16;100164.91;;;14.70;99.97
6853;BME280;3465;42.144;24.722;2022-11-15T07:26:41;100171.59;;;15.60;95.73
6853;BME280;3465;42.144;24.722;2022-11-15T07:29:06;100177.88;;;16.33;79.51
6853;BME280;3465;42.144;24.722;2022-11-15T07:31:32;100177.09;;;16.54;77.05
6853;BME280;3465;42.144;24.722;2022-11-15T07:33:57;100177.88;;;16.29;76.32
6853;BME280;3465;42.144;24.722;2022-11-15T07:36:22;100169.94;;;15.81;78.19
6853;BME280;3465;42.144;24.722;2022-11-15T07:38:48;100159.16;;;15.05;80.68
6853;BME280;3465;42.144;24.722;2022-11-15T07:41:13;100166.69;;;14.77;82.28
6853;BME280;3465;42.144;24.722;2022-11-15T07:43:39;100134.19;;;14.13;84.27
6853;BME280;3465;42.144;24.722;2022-11-15T07:46:06;100160.72;;;13.98;85.64
6853;BME280;3465;42.144;24.722;2022-11-15T07:48:34;100139.69;;;13.67;87.21
6853;BME280;3465;42.144;24.722;2022-11-15T07:51:00;100154.38;;;13.71;87.76
6853;BME280;3465;42.144;24.722;2022-11-15T07:53:25;100148.88;;;13.45;87.65
6853;BME280;3465;42.144;24.722;2022-11-15T07:55:51;100147.91;;;13.36;88.44
6853;BME280;3465;42.144;24.722;2022-11-15T07:58:18;100099.97;;;12.93;89.50
6853;BME280;3465;42.144;24.722;2022-11-15T08:00:43;100141.66;;;13.20;90.15
6853;BME280;3465;42.144;24.722;2022-11-15T08:03:14;100142.97;;;12.94;91.10
6853;BME280;3465;42.144;24.722;2022-11-15T08:05:41;100140.22;;;12.83;90.02
6853;BME280;3465;42.144;24.722;2022-11-15T08:08:08;100134.66;;;12.58;91.08
6853;BME280;3465;42.144;24.722;2022-11-15T08:10:34;100135.25;;;12.43;92.62
6853;BME280;3465;42.144;24.722;2022-11-15T08:13:05;100134.16;;;12.29;93.58
6853;BME280;3465;42.144;24.722;2022-11-15T08:15:32;100113.91;;;12.03;95.85
6853;BME280;3465;42.144;24.722;2022-11-15T08:18:00;100124.13;;;11.98;97.50
6853;BME280;3465;42.144;24.722;2022-11-15T08:20:27;100095.56;;;11.83;96.96
6853;BME280;3465;42.144;24.722;2022-11-15T08:23:00;100118.13;;;11.98;95.42
6853;BME280;3465;42.144;24.722;2022-11-15T08:25:26;100121.31;;;11.85;96.08
6853;BME280;3465;42.144;24.722;2022-11-15T08:27:55;100110.97;;;11.82;97.03
6853;BME280;3465;42.144;24.722;2022-11-15T08:30:22;100114.72;;;11.99;96.67
6853;BME280;3465;42.144;24.722;2022-11-15T08:32:48;100114.91;;;12.09;95.19
6853;BME280;3465;42.144;24.722;2022-11-15T08:35:14;100102.81;;;12.05;94.87
6853;BME280;3465;42.144;24.722;2022-11-15T08:37:39;100109.50;;;11.96;95.90
6853;BME280;3465;42.144;24.722;2022-11-15T08:40:05;100112.28;;;12.08;96.27
6853;BME280;3465;42.144;24.722;2022-11-15T08:42:31;100107.09;;;12.05;96.86
6853;BME280;3465;42.144;24.722;2022-11-15T08:44:58;100108.16;;;12.17;97.49
6853;BME280;3465;42.144;24.722;2022-11-15T08:47:23;100105.00;;;12.33;96.67
6853;BME280;3465;42.144;24.722;2022-11-15T08:49:49;100098.06;;;12.26;94.71
6853;BME280;3465;42.144;24.722;2022-11-15T08:52:14;100104.25;;;12.37;95.80
6853;BME280;3465;42.144;24.722;2022-11-15T08:54:40;100064.59;;;12.28;96.58
6853;BME280;3465;42.144;24.722;2022-11-15T08:57:06;100102.91;;;12.60;95.45
6853;BME280;3465;42.144;24.722;2022-11-15T08:59:31;100083.16;;;12.61;95.36
6853;BME280;3465;42.144;24.722;2022-11-15T09:01:56;100088.63;;;12.82;94.80
6853;BME280;3465;42.144;24.722;2022-11-15T09:04:22;100069.72;;;12.83;94.87
6853;BME280;3465;42.144;24.722;2022-11-15T09:06:47;100039.38;;;12.64;95.66
6853;BME280;3465;42.144;24.722;2022-11-15T09:09:12;100061.81;;;12.69;95.91
6853;BME280;3465;42.144;24.722;2022-11-15T09:11:38;100070.44;;;12.71;95.28
6853;BME280;3465;42.144;24.722;2022-11-15T09:14:03;100051.25;;;12.53;94.83
6853;BME280;3465;42.144;24.722;2022-11-15T09:16:30;100033.03;;;12.39;96.48
6853;BME280;3465;42.144;24.722;2022-11-15T09:18:56;100046.91;;;12.49;97.38
6853;BME280;3465;42.144;24.722;2022-11-15T09:21:21;100044.47;;;12.59;97.46
6853;BME280;3465;42.144;24.722;2022-11-15T09:23:46;100011.78;;;12.55;98.33
6853;BME280;3465;42.144;24.722;2022-11-15T09:26:12;100034.09;;;12.55;99.60
6853;BME280;3465;42.144;24.722;2022-11-15T09:28:38;100028.47;;;12.83;99.38
6853;BME280;3465;42.144;24.722;2022-11-15T09:31:07;100025.78;;;12.72;99.08
6853;BME280;3465;42.144;24.722;2022-11-15T09:33:32;100016.13;;;12.59;100.00
6853;BME280;3465;42.144;24.722;2022-11-15T09:36:03;99996.56;;;12.73;99.71
6853;BME280;3465;42.144;24.722;2022-11-15T09:38:29;100017.66;;;13.04;99.06
6853;BME280;3465;42.144;24.722;2022-11-15T09:41:25;100010.00;;;13.13;98.17
6853;BME280;3465;42.144;24.722;2022-11-15T09:44:44;100004.16;;;13.26;97.86
6853;BME280;3465;42.144;24.722;2022-11-15T09:47:05;99958.22;;;12.99;96.06
6853;BME280;3465;42.144;24.722;2022-11-15T09:49:34;99977.16;;;12.99;97.09
6853;BME280;3465;42.144;24.722;2022-11-15T09:52:00;100005.88;;;13.28;96.83
6853;BME280;3465;42.144;24.722;2022-11-15T09:54:29;100007.81;;;13.47;96.05
6853;BME280;3465;42.144;24.722;2022-11-15T09:56:59;100001.22;;;13.72;95.33
6853;BME280;3465;42.144;24.722;2022-11-15T09:59:47;99990.69;;;13.54;95.30
6853;BME280;3465;42.144;24.722;2022-11-15T10:04:42;99975.41;;;13.73;94.87
6853;BME280;3465;42.144;24.722;2022-11-15T10:09:55;99981.84;;;14.23;91.78
6853;BME280;3465;42.144;24.722;2022-11-15T10:12:23;99974.19;;;14.32;91.44
6853;BME280;3465;42.144;24.722;2022-11-15T10:15:04;99981.13;;;14.35;90.38
6853;BME280;3465;42.144;24.722;2022-11-15T10:20:21;99964.97;;;14.72;90.44
6853;BME280;3465;42.144;24.722;2022-11-15T10:22:50;99949.50;;;14.78;88.82
6853;BME280;3465;42.144;24.722;2022-11-15T10:25:25;99972.81;;;14.90;86.67
6853;BME280;3465;42.144;24.722;2022-11-15T10:30:40;99973.09;;;16.20;79.73
6853;BME280;3465;42.144;24.722;2022-11-15T10:35:42;99969.59;;;15.48;81.37
6853;BME280;3465;42.144;24.722;2022-11-15T10:38:10;99953.13;;;15.34;82.78
6853;BME280;3465;42.144;24.722;2022-11-15T10:40:37;99948.91;;;15.66;82.24
6853;BME280;3465;42.144;24.722;2022-11-15T10:43:14;99936.81;;;16.08;82.22
6853;BME280;3465;42.144;24.722;2022-11-15T10:45:40;99954.84;;;16.89;79.22
6853;BME280;3465;42.144;24.722;2022-11-15T10:50:38;99954.44;;;18.66;72.11
6853;BME280;3465;42.144;24.722;2022-11-15T10:53:16;99956.81;;;18.84;70.60
6853;BME280;3465;42.144;24.722;2022-11-15T10:55:47;99950.94;;;18.67;71.26
6853;BME280;3465;42.144;24.722;2022-11-15T10:58:32;99935.44;;;18.58;72.31
6853;BME280;3465;42.144;24.722;2022-11-15T11:01:28;99947.44;;;18.69;69.90
6853;BME280;3465;42.144;24.722;2022-11-15T11:04:08;99949.06;;;19.49;68.68
6853;BME280;3465;42.144;24.722;2022-11-15T11:06:54;99945.03;;;19.22;68.40
6853;BME280;3465;42.144;24.722;2022-11-15T11:09:32;99943.84;;;18.81;68.27
6853;BME280;3465;42.144;24.722;2022-11-15T11:11:59;99936.38;;;18.52;70.03
6853;BME280;3465;42.144;24.722;2022-11-15T11:14:30;99915.28;;;17.90;70.44
6853;BME280;3465;42.144;24.722;2022-11-15T11:24:47;99901.31;;;16.58;75.70
6853;BME280;3465;42.144;24.722;2022-11-15T11:30:17;99874.66;;;15.76;79.96
6853;BME280;3465;42.144;24.722;2022-11-15T11:35:39;99872.06;;;15.38;81.05
6853;BME280;3465;42.144;24.722;2022-11-15T11:38:22;99864.31;;;15.41;81.37
6853;BME280;3465;42.144;24.722;2022-11-15T11:48:58;99833.25;;;15.38;80.31
6853;BME280;3465;42.144;24.722;2022-11-15T11:54:32;99852.13;;;14.86;82.38
6853;BME280;3465;42.144;24.722;2022-11-15T11:57:03;99823.59;;;14.59;82.99
6853;BME280;3465;42.144;24.722;2022-11-15T11:59:54;99840.88;;;14.72;82.65
6853;BME280;3465;42.144;24.722;2022-11-15T12:02:29;99802.03;;;14.63;83.15
6853;BME280;3465;42.144;24.722;2022-11-15T12:05:27;99834.88;;;14.85;83.36
6853;BME280;3465;42.144;24.722;2022-11-15T12:08:01;99828.84;;;14.88;84.35
6853;BME280;3465;42.144;24.722;2022-11-15T12:10:30;99738.25;;;14.44;83.14
6853;BME280;3465;42.144;24.722;2022-11-15T12:13:12;99820.19;;;14.84;83.79
6853;BME280;3465;42.144;24.722;2022-11-15T12:16:02;99807.31;;;14.93;83.95
6853;BME280;3465;42.144;24.722;2022-11-15T12:18:29;99809.91;;;14.96;83.27
6853;BME280;3465;42.144;24.722;2022-11-15T12:21:02;99802.13;;;14.99;83.65
6853;BME280;3465;42.144;24.722;2022-11-15T12:23:34;99771.06;;;14.83;83.38
6853;BME280;3465;42.144;24.722;2022-11-15T12:26:06;99796.94;;;14.92;83.45
6853;BME280;3465;42.144;24.722;2022-11-15T12:28:52;99790.88;;;14.64;85.19
6853;BME280;3465;42.144;24.722;2022-11-15T12:31:35;99791.69;;;14.62;84.94
6853;BME280;3465;42.144;24.722;2022-11-15T12:36:43;99768.34;;;14.33;84.50
6853;BME280;3465;42.144;24.722;2022-11-15T12:39:13;99783.88;;;14.38;84.45
6853;BME280;3465;42.144;24.722;2022-11-15T12:41:43;99746.75;;;14.17;85.54
6853;BME280;3465;42.144;24.722;2022-11-15T12:44:56;99780.41;;;14.35;86.57
6853;BME280;3465;42.144;24.722;2022-11-15T12:47:25;99765.75;;;14.27;87.38
6853;BME280;3465;42.144;24.722;2022-11-15T12:49:51;99769.25;;;14.41;87.31
6853;BME280;3465;42.144;24.722;2022-11-15T12:52:17;99749.38;;;14.26;86.69
6853;BME280;3465;42.144;24.722;2022-11-15T12:54:54;99765.75;;;14.31;87.32
6853;BME280;3465;42.144;24.722;2022-11-15T12:59:52;99751.91;;;14.22;87.67
6853;BME280;3465;42.144;24.722;2022-11-15T13:02:43;99748.44;;;14.11;87.56
6853;BME280;3465;42.144;24.722;2022-11-15T13:10:29;99744.94;;;14.00;88.43
6853;BME280;3465;42.144;24.722;2022-11-15T13:12:56;99742.38;;;14.04;89.17
6853;BME280;3465;42.144;24.722;2022-11-15T13:15:34;99719.94;;;13.90;89.16
6853;BME280;3465;42.144;24.722;2022-11-15T13:18:33;99728.56;;;13.96;88.92
6853;BME280;3465;42.144;24.722;2022-11-15T13:21:00;99730.31;;;14.03;89.33
6853;BME280;3465;42.144;24.722;2022-11-15T13:23:26;99704.44;;;13.88;88.74
6853;BME280;3465;42.144;24.722;2022-11-15T13:26:10;99727.69;;;13.91;89.42
6853;BME280;3465;42.144;24.722;2022-11-15T13:28:46;99725.91;;;13.83;89.96
6853;BME280;3465;42.144;24.722;2022-11-15T13:31:19;99715.53;;;13.68;91.32
6853;BME280;3465;42.144;24.722;2022-11-15T13:33:46;99718.94;;;13.64;91.35
6853;BME280;3465;42.144;24.722;2022-11-15T13:36:19;99715.53;;;13.68;91.59
6853;BME280;3465;42.144;24.722;2022-11-15T13:39:00;99715.53;;;13.66;91.41
6853;BME280;3465;42.144;24.722;2022-11-15T13:41:29;99712.03;;;13.57;91.60
6853;BME280;3465;42.144;24.722;2022-11-15T13:43:56;99721.50;;;13.59;91.81
6853;BME280;3465;42.144;24.722;2022-11-15T13:46:32;99718.00;;;13.50;93.02
6853;BME280;3465;42.144;24.722;2022-11-15T13:49:03;99712.75;;;13.39;93.19
6853;BME280;3465;42.144;24.722;2022-11-15T13:56:45;99707.63;;;13.42;93.48
6853;BME280;3465;42.144;24.722;2022-11-15T13:59:28;99701.47;;;13.22;95.25
6853;BME280;3465;42.144;24.722;2022-11-15T14:01:55;99699.59;;;13.02;96.96
6853;BME280;3465;42.144;24.722;2022-11-15T14:04:23;99703.94;;;13.07;97.62
6853;BME280;3465;42.144;24.722;2022-11-15T14:06:53;99692.66;;;12.99;97.98
6853;BME280;3465;42.144;24.722;2022-11-15T14:09:33;99700.50;;;13.07;98.54
6853;BME280;3465;42.144;24.722;2022-11-15T14:11:59;99698.66;;;12.96;98.34
6853;BME280;3465;42.144;24.722;2022-11-15T14:14:27;99668.38;;;12.68;98.84
6853;BME280;3465;42.144;24.722;2022-11-15T14:16:57;99702.88;;;12.85;99.56
6853;BME280;3465;42.144;24.722;2022-11-15T14:22:15;99688.22;;;12.81;98.62
6853;BME280;3465;42.144;24.722;2022-11-15T14:24:44;99661.38;;;12.54;99.42
6853;BME280;3465;42.144;24.722;2022-11-15T14:27:28;99689.78;;;12.60;100.00
6853;BME280;3465;42.144;24.722;2022-11-15T14:29:54;99691.47;;;12.61;100.00
6853;BME280;3465;42.144;24.722;2022-11-15T14:34:49;99697.38;;;12.49;100.00
6853;BME280;3465;42.144;24.722;2022-11-15T14:37:38;99696.50;;;12.44;100.00
6853;BME280;3465;42.144;24.722;2022-11-15T14:40:05;99671.34;;;12.24;100.00
6853;BME280;3465;42.144;24.722;2022-11-15T14:42:31;99686.97;;;12.37;100.00
6853;BME280;3465;42.144;24.722;2022-11-15T14:44:57;99690.41;;;12.36;100.00
6853;BME280;3465;42.144;24.722;2022-11-15T14:47:22;99684.41;;;12.39;100.00
6853;BME280;3465;42.144;24.722;2022-11-15T14:49:48;99686.06;;;12.34;100.00
6853;BME280;3465;42.144;24.722;2022-11-15T14:52:27;99667.97;;;12.25;100.00
6853;BME280;3465;42.144;24.722;2022-11-15T14:54:54;99675.66;;;12.22;100.00